createdAt,value
2022-11-29T00:02:10.770Z,85.41
2022-11-29T00:04:55.821Z,84.58
2022-11-29T00:07:41.178Z,85.17
2022-11-29T00:10:26.485Z,85.00
2022-11-29T00:13:11.962Z,85.20
2022-11-29T00:16:09.279Z,84.69
2022-11-29T00:18:54.562Z,84.77
2022-11-29T00:21:40.064Z,84.97
2022-11-29T00:24:25.497Z,85.43
2022-11-29T00:27:10.608Z,84.97
2022-11-29T00:29:56.025Z,84.34
2022-11-29T00:32:41.477Z,84.22
2022-11-29T00:35:26.680Z,84.07
2022-11-29T00:38:12.097Z,83.96
2022-11-29T00:40:57.514Z,83.94
2022-11-29T00:43:42.769Z,83.97
2022-11-29T00:46:28.222Z,83.96
2022-11-29T00:49:13.909Z,84.33
2022-11-29T00:51:59.618Z,84.80
2022-11-29T00:54:45.143Z,83.72
2022-11-29T00:57:30.696Z,84.46
2022-11-29T01:00:16.756Z,84.33
2022-11-29T01:03:02.396Z,83.96
2022-11-29T01:05:47.731Z,84.38
2022-11-29T01:08:33.054Z,84.43
2022-11-29T01:11:21.488Z,84.60
2022-11-29T01:14:06.853Z,84.17
2022-11-29T01:16:52.360Z,84.01
2022-11-29T01:19:38.253Z,84.21
2022-11-29T01:22:23.731Z,84.80
2022-11-29T01:25:11.567Z,83.83
2022-11-29T01:27:56.661Z,83.50
2022-11-29T01:30:42.023Z,84.05
2022-11-29T01:33:27.353Z,84.00
2022-11-29T01:36:14.077Z,83.74
2022-11-29T01:39:01.585Z,83.86
2022-11-29T01:41:46.581Z,84.46
2022-11-29T01:44:31.782Z,84.04
2022-11-29T01:47:18.641Z,84.20
2022-11-29T01:50:04.236Z,84.40
2022-11-29T01:52:49.820Z,84.14
2022-11-29T01:55:39.230Z,84.43
2022-11-29T01:58:24.842Z,83.88
2022-11-29T02:01:10.865Z,83.84
2022-11-29T02:03:56.003Z,83.84
2022-11-29T02:06:41.525Z,84.17
2022-11-29T02:09:27.007Z,83.61
2022-11-29T02:12:30.365Z,84.34
2022-11-29T02:15:32.296Z,83.49
2022-11-29T02:18:35.563Z,83.53
2022-11-29T02:21:45.004Z,84.60
2022-11-29T02:24:50.687Z,83.54
2022-11-29T02:28:25.465Z,83.92
2022-11-29T02:31:29.400Z,83.52
2022-11-29T02:34:39.307Z,83.52
2022-11-29T02:37:27.417Z,83.49
2022-11-29T02:40:36.177Z,84.06
2022-11-29T02:43:36.563Z,83.99
2022-11-29T02:46:27.998Z,83.97
2022-11-29T02:49:44.207Z,83.51
2022-11-29T02:52:38.697Z,84.95
2022-11-29T02:55:48.409Z,84.74
2022-11-29T02:58:46.755Z,85.17
2022-11-29T03:01:34.917Z,86.03
2022-11-29T03:04:40.864Z,86.44
2022-11-29T03:07:53.471Z,86.41
2022-11-29T03:10:45.574Z,86.41
2022-11-29T03:13:46.321Z,86.75
2022-11-29T03:16:43.416Z,86.30
2022-11-29T03:19:54.135Z,86.94
2022-11-29T03:23:16.984Z,87.63
2022-11-29T03:26:10.928Z,87.52
2022-11-29T03:29:07.854Z,86.99
2022-11-29T03:32:08.329Z,86.80
2022-11-29T03:35:04.247Z,86.79
2022-11-29T03:38:19.095Z,86.77
2022-11-29T03:41:30.824Z,87.28
2022-11-29T03:44:17.912Z,87.50
2022-11-29T03:47:38.385Z,87.67
2022-11-29T03:50:30.507Z,86.92
2022-11-29T03:53:26.761Z,87.42
2022-11-29T03:56:35.353Z,87.60
2022-11-29T03:59:51.723Z,87.12
2022-11-29T04:02:55.909Z,87.00
2022-11-29T04:05:50.339Z,87.25
2022-11-29T04:09:06.756Z,87.04
2022-11-29T04:12:17.191Z,87.12
2022-11-29T04:15:25.805Z,87.42
2022-11-29T04:18:44.467Z,86.52
2022-11-29T04:21:32.097Z,87.04
2022-11-29T04:24:52.482Z,87.24
2022-11-29T04:27:54.616Z,86.45
2022-11-29T04:30:56.594Z,87.02
2022-11-29T04:33:42.095Z,86.72
2022-11-29T04:36:57.130Z,86.56
2022-11-29T04:39:57.595Z,86.50
2022-11-29T04:43:21.338Z,86.67
2022-11-29T04:46:24.985Z,86.38
2022-11-29T04:49:27.270Z,86.03
2022-11-29T04:52:33.652Z,86.19
2022-11-29T04:55:31.056Z,85.47
2022-11-29T04:58:34.236Z,86.47
2022-11-29T05:01:48.375Z,86.29
2022-11-29T05:04:58.147Z,85.92
2022-11-29T05:07:53.916Z,86.12
2022-11-29T05:10:52.423Z,85.72
2022-11-29T05:13:42.441Z,85.58
2022-11-29T05:16:47.844Z,85.41
2022-11-29T05:20:09.377Z,85.66
2022-11-29T05:23:26.105Z,85.97
2022-11-29T05:26:19.041Z,85.74
2022-11-29T05:29:18.632Z,85.48
2022-11-29T05:32:22.421Z,86.21
2022-11-29T05:35:29.527Z,85.34
2022-11-29T05:38:52.652Z,85.48
2022-11-29T05:41:48.125Z,85.73
2022-11-29T05:44:39.608Z,85.29
2022-11-29T05:47:42.855Z,86.02
2022-11-29T05:50:47.432Z,85.67
2022-11-29T05:53:46.986Z,85.45
2022-11-29T05:56:52.896Z,85.98
2022-11-29T05:59:40.055Z,85.35
2022-11-29T06:02:49.850Z,84.77
2022-11-29T06:05:46.716Z,85.86
2022-11-29T06:09:17.172Z,85.66
2022-11-29T06:12:18.183Z,86.53
2022-11-29T06:15:34.092Z,86.16
2022-11-29T06:18:47.070Z,86.42
2022-11-29T06:21:51.757Z,86.10
2022-11-29T06:25:06.738Z,85.62
2022-11-29T06:27:51.856Z,86.12
2022-11-29T06:31:02.771Z,86.04
2022-11-29T06:33:56.854Z,85.46
2022-11-29T06:36:48.664Z,84.86
2022-11-29T06:39:34.378Z,85.76
2022-11-29T06:42:19.888Z,85.76
2022-11-29T06:45:07.309Z,86.22
2022-11-29T06:48:02.367Z,86.02
2022-11-29T06:51:09.975Z,85.65
2022-11-29T06:54:20.150Z,85.95
2022-11-29T06:57:26.882Z,86.61
2022-11-29T07:00:22.200Z,85.79
2022-11-29T07:03:29.262Z,85.82
2022-11-29T07:06:24.016Z,85.35
2022-11-29T07:09:20.311Z,85.28
2022-11-29T07:12:06.108Z,84.90
2022-11-29T07:14:51.992Z,84.85
2022-11-29T07:18:04.762Z,84.19
2022-11-29T07:21:04.782Z,84.26
2022-11-29T07:24:05.601Z,84.41
2022-11-29T07:27:15.547Z,84.16
2022-11-29T07:30:09.462Z,83.81
2022-11-29T07:33:29.505Z,83.94
2022-11-29T07:36:21.097Z,84.39
2022-11-29T07:39:17.624Z,83.35
2022-11-29T07:42:30.661Z,83.88
2022-11-29T07:45:28.557Z,83.87
2022-11-29T07:48:16.149Z,84.28
2022-11-29T07:51:01.885Z,85.00
2022-11-29T07:53:47.608Z,85.15
2022-11-29T07:56:33.226Z,84.90
2022-11-29T07:59:18.453Z,85.47
2022-11-29T08:02:08.782Z,84.51
2022-11-29T08:04:57.729Z,84.47
2022-11-29T08:07:42.926Z,84.78
2022-11-29T08:10:28.745Z,85.11
2022-11-29T08:13:14.510Z,84.31
2022-11-29T08:15:59.663Z,84.33
2022-11-29T08:18:45.303Z,83.09
2022-11-29T08:21:30.497Z,83.30
2022-11-29T08:24:15.873Z,83.38
2022-11-29T08:27:01.526Z,83.89
2022-11-29T08:29:46.745Z,84.28
2022-11-29T08:32:33.135Z,83.97
2022-11-29T08:35:20.620Z,83.82
2022-11-29T08:38:06.762Z,83.56
2022-11-29T08:40:51.913Z,83.19
2022-11-29T08:43:37.228Z,83.70
2022-11-29T08:46:43.056Z,83.25
2022-11-29T08:49:28.545Z,83.49
2022-11-29T08:52:32.194Z,82.33
2022-11-29T08:55:19.801Z,82.22
2022-11-29T08:58:12.059Z,82.21
2022-11-29T09:00:57.780Z,82.03
2022-11-29T09:03:59.496Z,81.93
2022-11-29T09:06:45.197Z,81.78
2022-11-29T09:09:30.592Z,81.35
2022-11-29T09:12:16.286Z,81.56
2022-11-29T09:15:02.026Z,81.25
2022-11-29T09:17:47.711Z,80.79
2022-11-29T09:20:33.920Z,80.99
2022-11-29T09:23:19.021Z,80.79
2022-11-29T09:26:05.500Z,80.75
2022-11-29T09:28:50.752Z,79.72
2022-11-29T09:31:36.279Z,80.24
2022-11-29T09:34:22.033Z,81.00
2022-11-29T09:37:07.462Z,79.76
2022-11-29T09:39:53.325Z,80.42
2022-11-29T09:43:12.621Z,80.47
2022-11-29T09:46:23.007Z,80.81
2022-11-29T09:49:42.394Z,80.10
2022-11-29T09:53:15.606Z,79.56
2022-11-29T09:56:09.914Z,79.29
2022-11-29T09:59:01.800Z,78.93
2022-11-29T10:01:59.981Z,78.58
2022-11-29T10:04:50.419Z,77.83
2022-11-29T10:08:08.020Z,77.21
2022-11-29T10:11:05.724Z,77.94
2022-11-29T10:13:57.829Z,78.59
2022-11-29T10:16:45.649Z,78.82
2022-11-29T10:19:36.932Z,78.80
2022-11-29T10:22:30.040Z,78.87
2022-11-29T10:25:23.711Z,79.37
2022-11-29T10:28:13.977Z,79.84
2022-11-29T10:31:20.131Z,79.15
2022-11-29T10:34:21.225Z,79.49
2022-11-29T10:37:13.351Z,79.25
2022-11-29T10:40:09.658Z,79.24
2022-11-29T10:42:55.617Z,79.21
2022-11-29T10:45:50.652Z,79.10
2022-11-29T10:48:36.289Z,79.48
2022-11-29T10:51:21.826Z,79.99
2022-11-29T10:54:39.699Z,79.30
2022-11-29T10:57:25.555Z,79.13
2022-11-29T11:00:11.912Z,78.75
2022-11-29T11:03:18.025Z,78.70
2022-11-29T11:06:06.361Z,79.04
2022-11-29T11:08:54.532Z,79.29
2022-11-29T11:11:40.225Z,79.78
2022-11-29T11:14:32.143Z,79.03
2022-11-29T11:17:32.748Z,79.43
2022-11-29T11:20:23.950Z,79.63
2022-11-29T11:23:29.677Z,80.14
2022-11-29T11:26:15.337Z,80.69
2022-11-29T11:29:02.525Z,79.72
2022-11-29T11:31:56.157Z,80.04
2022-11-29T11:34:51.358Z,79.63
2022-11-29T11:37:36.776Z,79.85
2022-11-29T11:40:29.624Z,79.78
2022-11-29T11:43:20.842Z,79.73
2022-11-29T11:46:08.076Z,79.75
2022-11-29T11:48:54.056Z,79.08
2022-11-29T11:51:42.842Z,79.22
2022-11-29T11:54:29.489Z,78.23
2022-11-29T11:57:18.931Z,79.07
2022-11-29T12:00:07.220Z,78.47
2022-11-29T12:02:58.870Z,79.02
2022-11-29T12:05:47.584Z,78.36
2022-11-29T12:08:35.130Z,78.32
2022-11-29T12:11:21.888Z,78.87
2022-11-29T12:14:13.135Z,78.42
2022-11-29T12:17:08.083Z,78.34
2022-11-29T12:20:26.124Z,78.13
2022-11-29T12:23:11.556Z,78.97
2022-11-29T12:26:10.151Z,78.42
2022-11-29T12:28:56.427Z,78.48
2022-11-29T12:32:01.137Z,78.96
2022-11-29T12:34:47.399Z,79.21
2022-11-29T12:37:49.227Z,79.06
2022-11-29T12:40:53.884Z,79.46
2022-11-29T12:43:54.517Z,79.28
2022-11-29T12:46:48.773Z,79.41
2022-11-29T12:50:01.067Z,79.92
2022-11-29T12:53:27.311Z,79.80
2022-11-29T12:56:26.092Z,79.45
2022-11-29T12:59:11.658Z,79.41
2022-11-29T13:02:21.444Z,78.39
2022-11-29T13:05:14.558Z,78.63
2022-11-29T13:08:52.595Z,78.68
2022-11-29T13:11:43.071Z,78.48
2022-11-29T13:14:43.412Z,79.03
2022-11-29T13:17:49.946Z,79.50
2022-11-29T13:21:01.410Z,79.00
2022-11-29T13:24:10.157Z,79.21
2022-11-29T13:26:57.253Z,79.94
2022-11-29T13:29:43.453Z,80.16
2022-11-29T13:32:37.692Z,80.85
2022-11-29T13:35:38.722Z,80.68
2022-11-29T13:38:40.506Z,80.78
2022-11-29T13:41:35.221Z,81.17
2022-11-29T13:44:46.250Z,80.80
2022-11-29T13:47:31.772Z,81.02
2022-11-29T13:50:39.087Z,80.71
2022-11-29T13:53:29.831Z,81.36
2022-11-29T13:56:29.475Z,81.40
2022-11-29T13:59:30.625Z,81.28
2022-11-29T14:02:43.815Z,81.81
2022-11-29T14:05:29.623Z,81.50
2022-11-29T14:08:55.195Z,81.47
2022-11-29T14:11:41.867Z,81.83
2022-11-29T14:14:50.487Z,81.76
2022-11-29T14:17:48.182Z,81.44
2022-11-29T14:20:39.575Z,82.24
2022-11-29T14:23:35.397Z,81.86
2022-11-29T14:26:28.525Z,82.02
2022-11-29T14:29:54.930Z,82.50
2022-11-29T14:32:59.216Z,81.62
2022-11-29T14:35:59.916Z,82.25
2022-11-29T14:39:03.961Z,82.03
2022-11-29T14:42:18.606Z,82.33
2022-11-29T14:45:22.602Z,83.13
2022-11-29T14:48:26.732Z,82.32
2022-11-29T14:51:18.662Z,82.75
2022-11-29T14:54:19.796Z,83.16
2022-11-29T14:57:52.273Z,83.21
2022-11-29T15:00:40.860Z,83.21
2022-11-29T15:03:32.856Z,82.69
2022-11-29T15:06:25.572Z,83.49
2022-11-29T15:09:20.530Z,83.18
2022-11-29T15:12:31.254Z,84.22
2022-11-29T15:15:28.670Z,84.62
2022-11-29T15:18:35.257Z,84.48
2022-11-29T15:21:33.677Z,83.73
2022-11-29T15:24:20.576Z,84.06
2022-11-29T15:27:12.722Z,84.15
2022-11-29T15:29:59.838Z,84.61
2022-11-29T15:32:45.221Z,84.66
2022-11-29T15:35:32.342Z,85.82
2022-11-29T15:38:21.737Z,86.22
2022-11-29T15:41:17.745Z,85.86
2022-11-29T15:44:06.055Z,87.48
2022-11-29T15:46:51.338Z,87.74
2022-11-29T15:49:36.457Z,87.56
2022-11-29T15:52:31.951Z,87.54
2022-11-29T15:55:17.575Z,89.01
2022-11-29T15:58:08.787Z,90.82
2022-11-29T16:00:55.135Z,91.44
2022-11-29T16:03:43.445Z,91.96
2022-11-29T16:06:39.218Z,91.92
2022-11-29T16:09:38.350Z,92.67
2022-11-29T16:12:24.844Z,92.72
2022-11-29T16:15:31.574Z,93.17
2022-11-29T16:18:23.382Z,93.05
2022-11-29T16:21:31.780Z,93.30
2022-11-29T16:24:21.685Z,93.12
2022-11-29T16:27:08.130Z,94.20
2022-11-29T16:29:55.487Z,94.17
2022-11-29T16:32:47.148Z,94.78
2022-11-29T16:35:36.437Z,94.84
2022-11-29T16:38:23.215Z,94.83
2022-11-29T16:41:23.476Z,95.30
2022-11-29T16:44:50.021Z,94.50
2022-11-29T16:47:57.863Z,95.41
2022-11-29T16:50:43.321Z,95.39
2022-11-29T16:53:37.474Z,94.87
2022-11-29T16:56:25.785Z,94.50
2022-11-29T16:59:26.331Z,93.09
2022-11-29T17:02:14.570Z,93.54
2022-11-29T17:04:59.914Z,93.66
2022-11-29T17:07:45.644Z,94.20
2022-11-29T17:10:32.189Z,93.83
2022-11-29T17:13:17.690Z,93.42
2022-11-29T17:16:02.925Z,94.21
2022-11-29T17:18:48.803Z,92.96
2022-11-29T17:21:34.076Z,93.42
2022-11-29T17:24:21.621Z,93.16
2022-11-29T17:27:07.483Z,93.20
2022-11-29T17:29:52.752Z,92.89
2022-11-29T17:32:38.376Z,91.99
2022-11-29T17:35:23.817Z,92.19
2022-11-29T17:38:09.331Z,91.27
2022-11-29T17:40:54.761Z,91.18
2022-11-29T17:43:40.545Z,91.50
2022-11-29T17:46:31.765Z,89.06
2022-11-29T17:49:18.601Z,89.86
2022-11-29T17:52:03.953Z,90.43
2022-11-29T17:54:49.390Z,90.38
2022-11-29T17:57:34.449Z,89.94
2022-11-29T18:00:20.345Z,89.28
2022-11-29T18:03:05.654Z,88.65
2022-11-29T18:05:51.358Z,89.40
2022-11-29T18:08:42.462Z,89.28
2022-11-29T18:11:46.988Z,88.73
2022-11-29T18:14:34.094Z,87.65
2022-11-29T18:17:19.513Z,87.25
